createdAt,value
2018-04-30T00:01:07.079Z,0
2018-04-30T00:02:17.202Z,0
2018-04-30T00:03:27.284Z,0
2018-04-30T00:04:37.347Z,0
2018-04-30T00:05:47.421Z,0
2018-04-30T00:06:57.239Z,0
2018-04-30T00:08:07.387Z,0
2018-04-30T00:09:17.231Z,0
2018-04-30T00:10:27.060Z,0
2018-04-30T00:11:37.144Z,0
2018-04-30T00:12:47.231Z,0
2018-04-30T00:13:57.319Z,0
2018-04-30T00:15:07.404Z,0
2018-04-30T00:16:17.492Z,0
2018-04-30T00:17:27.297Z,0
2018-04-30T00:18:37.139Z,0
2018-04-30T00:19:47.290Z,0
2018-04-30T00:20:57.358Z,0
2018-04-30T00:22:07.164Z,0
2018-04-30T00:23:16.974Z,0
2018-04-30T00:24:27.058Z,0
2018-04-30T00:25:37.146Z,0
2018-04-30T00:26:47.236Z,0
2018-04-30T00:27:57.059Z,0
2018-04-30T00:29:06.887Z,0
2018-04-30T00:30:16.983Z,0
2018-04-30T00:31:26.858Z,0
2018-04-30T00:32:36.951Z,0
2018-04-30T00:33:47.209Z,0
2018-04-30T00:34:57.035Z,0
2018-04-30T00:36:06.913Z,0
2018-04-30T00:37:16.742Z,0
2018-04-30T00:38:26.541Z,0
2018-04-30T00:39:36.440Z,0
2018-04-30T00:40:46.512Z,0
2018-04-30T00:41:56.596Z,0
2018-04-30T00:43:06.678Z,0
2018-04-30T00:44:16.493Z,0
2018-04-30T00:45:26.053Z,0
2018-04-30T00:46:36.131Z,0
2018-04-30T00:47:45.945Z,0
2018-04-30T00:48:56.036Z,0
2018-04-30T00:50:05.863Z,0
2018-04-30T00:51:15.953Z,0
2018-04-30T00:52:25.760Z,0
2018-04-30T00:53:35.585Z,0
2018-04-30T00:54:45.697Z,0
2018-04-30T00:55:55.784Z,0
2018-04-30T00:57:05.865Z,0
2018-04-30T00:58:15.956Z,0
2018-04-30T00:59:26.055Z,0
2018-04-30T01:00:36.141Z,0
2018-04-30T01:01:46.223Z,0
2018-04-30T01:02:56.326Z,0
2018-04-30T01:04:06.411Z,0
2018-04-30T01:05:16.252Z,0
2018-04-30T01:06:26.326Z,0
2018-04-30T01:07:36.417Z,0
2018-04-30T01:08:46.500Z,0
2018-04-30T01:09:56.589Z,0
2018-04-30T01:11:06.146Z,0
2018-04-30T01:12:15.710Z,0
2018-04-30T01:13:25.815Z,0
2018-04-30T01:14:35.881Z,0
2018-04-30T01:15:45.707Z,0
2018-04-30T01:16:55.800Z,0
2018-04-30T01:18:05.641Z,0
2018-04-30T01:19:15.742Z,0
2018-04-30T01:20:25.568Z,0
2018-04-30T01:21:35.648Z,0
2018-04-30T01:22:45.738Z,0
2018-04-30T01:23:55.880Z,0
2018-04-30T01:25:05.992Z,0
2018-04-30T01:26:15.800Z,0
2018-04-30T01:27:25.899Z,0
2018-04-30T01:28:35.733Z,0
2018-04-30T01:29:45.650Z,0
2018-04-30T01:30:55.726Z,0
2018-04-30T01:32:05.832Z,0
2018-04-30T01:33:15.909Z,0
2018-04-30T01:34:25.988Z,0
2018-04-30T01:35:36.089Z,0
2018-04-30T01:36:45.908Z,0
2018-04-30T01:37:55.991Z,0
2018-04-30T01:39:06.072Z,0
2018-04-30T01:40:15.883Z,0
2018-04-30T01:41:25.965Z,0
2018-04-30T01:42:36.056Z,0
2018-04-30T01:43:45.874Z,0
2018-04-30T01:44:55.691Z,0
2018-04-30T01:46:05.490Z,0
2018-04-30T01:47:15.638Z,0
2018-04-30T01:48:25.734Z,0
2018-04-30T01:49:35.562Z,0
2018-04-30T01:50:45.643Z,0
2018-04-30T01:51:55.744Z,0
2018-04-30T01:53:05.558Z,0
2018-04-30T01:54:15.638Z,0
2018-04-30T01:55:25.712Z,0
2018-04-30T01:56:35.813Z,0
2018-04-30T01:57:45.916Z,0
2018-04-30T01:58:55.763Z,0
2018-04-30T02:00:05.841Z,0
2018-04-30T02:01:15.937Z,0
2018-04-30T02:02:25.489Z,0
2018-04-30T02:03:35.311Z,0
2018-04-30T02:04:45.447Z,0
2018-04-30T02:05:55.528Z,0
2018-04-30T02:07:05.074Z,0
2018-04-30T02:08:14.902Z,0
2018-04-30T02:09:25.030Z,0
2018-04-30T02:10:35.138Z,0
2018-04-30T02:11:45.225Z,0
2018-04-30T02:12:55.307Z,0
2018-04-30T02:14:05.381Z,0
2018-04-30T02:15:15.185Z,0
2018-04-30T02:16:25.010Z,0
2018-04-30T02:17:35.110Z,0
2018-04-30T02:18:45.184Z,0
2018-04-30T02:19:55.315Z,0
2018-04-30T02:21:04.879Z,0
2018-04-30T02:22:14.698Z,0
2018-04-30T02:23:24.784Z,0
2018-04-30T02:24:34.606Z,0
2018-04-30T02:25:44.675Z,0
2018-04-30T02:26:54.500Z,0
2018-04-30T02:28:04.589Z,0
2018-04-30T02:29:14.691Z,0
2018-04-30T02:30:24.804Z,0
2018-04-30T02:31:34.615Z,0
2018-04-30T02:32:44.695Z,0
2018-04-30T02:33:54.583Z,0
2018-04-30T02:35:04.679Z,0
2018-04-30T02:36:14.778Z,0
2018-04-30T02:37:24.879Z,0
2018-04-30T02:38:34.977Z,0
2018-04-30T02:39:44.828Z,0
2018-04-30T02:40:54.905Z,0
2018-04-30T02:42:04.996Z,0
2018-04-30T02:43:15.083Z,0
2018-04-30T02:44:25.162Z,0
2018-04-30T02:45:35.332Z,0
2018-04-30T02:46:45.407Z,0
2018-04-30T02:47:55.513Z,0
2018-04-30T02:49:05.607Z,0
2018-04-30T02:50:15.715Z,0
2018-04-30T02:51:25.844Z,0
2018-04-30T02:52:35.914Z,0
2018-04-30T02:53:45.999Z,0
2018-04-30T02:54:56.143Z,0
2018-04-30T02:56:06.238Z,0
2018-04-30T02:57:16.354Z,0
2018-04-30T02:58:26.439Z,0
2018-04-30T02:59:36.533Z,0
2018-04-30T03:00:46.607Z,0
2018-04-30T03:01:56.688Z,0
2018-04-30T03:34:36.864Z,0
2018-04-30T03:35:46.427Z,0
2018-04-30T03:36:55.978Z,5
2018-04-30T03:38:05.778Z,5
2018-04-30T03:39:15.613Z,5
2018-04-30T03:40:25.682Z,5
2018-04-30T03:41:35.758Z,5
2018-04-30T03:42:45.843Z,5
2018-04-30T03:43:55.916Z,10
2018-04-30T03:45:06.000Z,10
2018-04-30T03:46:15.865Z,10
2018-04-30T03:47:25.952Z,10
2018-04-30T03:48:36.048Z,15
2018-04-30T03:49:46.436Z,15
2018-04-30T03:50:56.520Z,15
2018-04-30T03:52:06.725Z,15
2018-04-30T03:53:16.813Z,20
2018-04-30T03:54:26.894Z,20
2018-04-30T03:55:36.974Z,20
2018-04-30T03:56:46.805Z,25
2018-04-30T03:57:56.677Z,25
2018-04-30T03:59:06.779Z,25
2018-04-30T04:00:16.877Z,30
2018-04-30T04:01:27.088Z,30
2018-04-30T04:02:37.200Z,30
2018-04-30T04:03:47.342Z,30
2018-04-30T04:04:57.428Z,30
2018-04-30T04:06:07.250Z,35
2018-04-30T04:07:17.419Z,35
2018-04-30T04:08:27.253Z,40
2018-04-30T04:09:37.141Z,40
2018-04-30T04:10:47.217Z,45
2018-04-30T04:11:57.357Z,45
2018-04-30T04:13:07.507Z,45
2018-04-30T04:14:17.626Z,50
2018-04-30T04:15:27.754Z,50
2018-04-30T04:16:37.849Z,55
2018-04-30T04:17:47.952Z,55
2018-04-30T04:18:58.038Z,55
2018-04-30T04:20:08.145Z,65
2018-04-30T04:21:17.986Z,70
2018-04-30T04:22:27.797Z,70
2018-04-30T04:23:37.678Z,75
2018-04-30T04:24:47.537Z,75
2018-04-30T04:25:57.625Z,105
2018-04-30T04:27:07.236Z,120
2018-04-30T04:28:17.344Z,120
2018-04-30T04:29:27.444Z,110
2018-04-30T04:30:37.523Z,95
2018-04-30T04:31:47.633Z,110
2018-04-30T04:32:57.720Z,95
2018-04-30T04:34:07.802Z,95
2018-04-30T04:35:18.132Z,95
2018-04-30T04:36:28.258Z,100
2018-04-30T04:37:38.336Z,125
2018-04-30T04:38:48.467Z,135
2018-04-30T04:39:58.564Z,145
2018-04-30T04:41:08.665Z,155
2018-04-30T04:42:18.554Z,140
2018-04-30T04:43:28.772Z,120
2018-04-30T04:44:38.916Z,140
2018-04-30T04:45:48.747Z,160
2018-04-30T04:46:58.565Z,180
2018-04-30T04:48:08.379Z,225
2018-04-30T04:49:18.207Z,275
2018-04-30T04:50:28.448Z,280
2018-04-30T04:51:38.515Z,275
2018-04-30T04:52:48.388Z,265
2018-04-30T04:53:58.502Z,265
2018-04-30T04:55:08.607Z,290
2018-04-30T04:56:18.755Z,260
2018-04-30T04:57:28.873Z,215
2018-04-30T04:58:38.947Z,255
2018-04-30T04:59:48.788Z,315
2018-04-30T05:00:58.890Z,315
2018-04-30T05:02:09.081Z,330
2018-04-30T05:03:19.207Z,325
2018-04-30T05:04:29.311Z,340
2018-04-30T05:05:39.436Z,330
2018-04-30T05:06:49.541Z,330
2018-04-30T05:07:59.628Z,340
2018-04-30T05:09:09.735Z,345
2018-04-30T05:10:19.556Z,340
2018-04-30T05:11:29.371Z,345
2018-04-30T05:12:39.194Z,340
2018-04-30T05:13:49.088Z,325
2018-04-30T05:14:59.190Z,310
2018-04-30T05:16:09.008Z,295
2018-04-30T05:17:19.112Z,305
2018-04-30T05:18:29.191Z,280
2018-04-30T05:19:39.082Z,255
2018-04-30T05:20:49.279Z,225
2018-04-30T05:21:59.367Z,220
2018-04-30T05:23:09.459Z,210
2018-04-30T05:24:19.543Z,185
2018-04-30T05:25:29.374Z,155
2018-04-30T05:26:39.484Z,135
2018-04-30T05:27:49.568Z,130
2018-04-30T05:28:59.700Z,125
2018-04-30T05:30:09.777Z,130
2018-04-30T05:31:19.612Z,145
2018-04-30T05:32:29.716Z,145
2018-04-30T05:33:39.812Z,145
2018-04-30T05:34:49.947Z,135
2018-04-30T05:35:59.821Z,145
2018-04-30T05:37:09.901Z,155
2018-04-30T05:38:20.014Z,160
2018-04-30T05:39:30.171Z,175
2018-04-30T05:40:40.003Z,170
2018-04-30T05:41:50.102Z,200
2018-04-30T05:43:00.192Z,200
2018-04-30T05:44:10.012Z,225
2018-04-30T05:45:20.108Z,215
2018-04-30T05:46:30.025Z,230
2018-04-30T05:47:40.422Z,230
2018-04-30T05:48:51.985Z,235
2018-04-30T05:50:03.112Z,230
2018-04-30T05:51:14.647Z,170
2018-04-30T05:52:25.031Z,145
2018-04-30T05:53:35.742Z,135
2018-04-30T05:54:46.419Z,140
2018-04-30T05:55:56.850Z,150
2018-04-30T05:57:07.047Z,155
2018-04-30T05:58:17.238Z,155
2018-04-30T05:59:27.353Z,155
2018-04-30T06:00:37.935Z,160
2018-04-30T06:01:48.035Z,160
2018-04-30T06:02:57.850Z,160
2018-04-30T06:04:08.033Z,165
2018-04-30T06:05:18.215Z,165
2018-04-30T06:06:28.357Z,170
2018-04-30T06:07:38.508Z,170
2018-04-30T06:08:48.672Z,175
2018-04-30T06:09:58.786Z,175
2018-04-30T06:11:08.912Z,175
2018-04-30T06:12:19.336Z,170
2018-04-30T06:13:29.492Z,165
2018-04-30T06:14:39.598Z,165
2018-04-30T06:15:49.422Z,165
2018-04-30T06:16:59.015Z,170
2018-04-30T06:18:08.843Z,170
2018-04-30T06:19:18.929Z,175
2018-04-30T06:20:29.045Z,175
2018-04-30T06:21:39.138Z,170
2018-04-30T06:22:49.228Z,170
2018-04-30T06:23:59.385Z,175
2018-04-30T06:25:09.500Z,180
2018-04-30T06:26:19.599Z,185
2018-04-30T06:27:29.699Z,195
2018-04-30T06:28:39.835Z,195
2018-04-30T06:29:49.937Z,195
2018-04-30T06:30:59.763Z,190
2018-04-30T06:32:09.624Z,190
2018-04-30T06:33:19.714Z,195
2018-04-30T06:34:29.800Z,190
2018-04-30T06:35:40.160Z,190
2018-04-30T06:36:50.258Z,175
2018-04-30T06:38:00.365Z,175
2018-04-30T06:39:10.477Z,190
2018-04-30T06:40:20.582Z,175
2018-04-30T06:41:30.408Z,180
2018-04-30T06:42:40.515Z,175
2018-04-30T06:43:50.628Z,170
2018-04-30T06:45:00.470Z,175
2018-04-30T06:46:10.576Z,180
2018-04-30T06:47:20.412Z,175
2018-04-30T06:48:30.779Z,175
2018-04-30T06:49:40.949Z,170
2018-04-30T06:50:51.057Z,170
2018-04-30T06:52:01.139Z,165
2018-04-30T06:53:11.328Z,160
2018-04-30T06:54:21.425Z,165
2018-04-30T06:55:31.560Z,165
2018-04-30T06:56:41.686Z,165
2018-04-30T06:57:51.831Z,175
2018-04-30T06:59:01.923Z,175
2018-04-30T07:00:11.764Z,180
2018-04-30T07:01:21.855Z,180
2018-04-30T07:02:31.976Z,180
2018-04-30T07:03:42.071Z,185
2018-04-30T07:04:51.899Z,185
2018-04-30T07:06:01.729Z,185
2018-04-30T07:07:11.808Z,190
2018-04-30T07:08:21.925Z,190
2018-04-30T07:09:33.057Z,190
2018-04-30T07:10:43.262Z,200
2018-04-30T07:11:53.367Z,195
2018-04-30T07:13:03.624Z,195
2018-04-30T07:14:13.717Z,195
2018-04-30T07:15:23.833Z,200
2018-04-30T07:16:33.930Z,200
2018-04-30T07:17:44.049Z,185
2018-04-30T07:18:54.176Z,200
2018-04-30T07:20:04.438Z,200
2018-04-30T07:21:14.588Z,210
2018-04-30T07:22:24.470Z,205
2018-04-30T07:23:34.358Z,210
2018-04-30T07:24:44.193Z,210
2018-04-30T07:25:54.023Z,210
2018-04-30T07:27:04.135Z,210
2018-04-30T07:28:14.242Z,210
2018-04-30T07:29:24.084Z,210
2018-04-30T07:30:34.188Z,210
2018-04-30T07:31:44.288Z,210
2018-04-30T07:32:54.384Z,210
2018-04-30T07:34:04.216Z,210
2018-04-30T07:35:14.077Z,210
2018-04-30T07:36:24.178Z,210
2018-04-30T07:37:34.022Z,205
2018-04-30T07:38:44.136Z,205
2018-04-30T07:39:54.257Z,195
2018-04-30T07:41:04.087Z,200
2018-04-30T07:42:14.204Z,200
2018-04-30T07:43:24.338Z,205
2018-04-30T07:44:34.466Z,200
2018-04-30T07:45:44.559Z,200
2018-04-30T07:46:54.401Z,205
2018-04-30T07:48:04.299Z,210
2018-04-30T07:49:14.586Z,215
2018-04-30T07:50:24.710Z,220
2018-04-30T07:51:34.815Z,225
2018-04-30T07:52:44.908Z,230
2018-04-30T07:53:54.741Z,230
2018-04-30T07:55:04.572Z,225
2018-04-30T07:56:14.674Z,225
2018-04-30T07:57:24.787Z,215
2018-04-30T07:58:34.906Z,210
2018-04-30T07:59:45.042Z,210
2018-04-30T08:00:54.891Z,215
2018-04-30T08:02:04.470Z,225
2018-04-30T08:03:14.930Z,225
2018-04-30T08:04:24.999Z,230
2018-04-30T08:05:35.163Z,230
2018-04-30T08:06:45.284Z,230
2018-04-30T08:07:55.107Z,230
2018-04-30T08:09:05.235Z,230
2018-04-30T08:10:15.390Z,230
2018-04-30T08:11:25.293Z,235
2018-04-30T08:12:35.149Z,230
2018-04-30T08:13:45.254Z,235
2018-04-30T08:14:55.625Z,235
2018-04-30T08:16:05.712Z,235
2018-04-30T08:17:15.791Z,240
2018-04-30T08:18:25.706Z,240
2018-04-30T08:19:35.810Z,240
2018-04-30T08:20:45.913Z,245
2018-04-30T08:21:55.807Z,245
2018-04-30T08:23:06.080Z,245
2018-04-30T08:24:15.964Z,245
2018-04-30T08:25:26.084Z,245
2018-04-30T08:26:36.203Z,250
2018-04-30T08:27:46.327Z,245
2018-04-30T08:28:56.481Z,245
2018-04-30T08:30:06.594Z,250
2018-04-30T08:31:16.448Z,250
2018-04-30T08:32:26.545Z,255
2018-04-30T08:33:36.684Z,260
2018-04-30T08:34:46.828Z,260
2018-04-30T08:35:56.949Z,265
2018-04-30T08:37:06.834Z,275
2018-04-30T08:38:16.684Z,285
2018-04-30T08:39:26.796Z,280
2018-04-30T08:40:36.930Z,290
2018-04-30T08:41:46.775Z,280
2018-04-30T08:42:56.901Z,275
2018-04-30T08:44:07.035Z,275
2018-04-30T08:45:17.041Z,260
2018-04-30T08:46:27.190Z,255
2018-04-30T08:47:37.307Z,255
2018-04-30T08:48:47.155Z,255
2018-04-30T08:49:57.500Z,265
2018-04-30T08:51:07.621Z,260
2018-04-30T08:52:18.048Z,260
2018-04-30T08:53:27.885Z,260
2018-04-30T08:54:37.992Z,260
2018-04-30T08:55:47.890Z,265
2018-04-30T08:56:57.968Z,275
2018-04-30T08:58:07.807Z,255
2018-04-30T08:59:17.936Z,275
2018-04-30T09:00:28.792Z,285
2018-04-30T09:01:39.026Z,260
2018-04-30T09:02:49.175Z,260
2018-04-30T09:03:59.438Z,270
2018-04-30T09:05:09.625Z,255
2018-04-30T09:06:19.729Z,255
2018-04-30T09:07:29.842Z,235
2018-04-30T09:08:40.082Z,240
2018-04-30T09:09:50.569Z,255
2018-04-30T09:11:00.663Z,230
2018-04-30T09:12:10.765Z,255
2018-04-30T09:13:20.844Z,265
2018-04-30T09:14:30.687Z,260
2018-04-30T09:15:40.822Z,250
2018-04-30T09:16:50.919Z,255
2018-04-30T09:18:01.109Z,255
2018-04-30T09:19:11.234Z,250
2018-04-30T09:20:21.328Z,235
2018-04-30T09:21:31.431Z,220
2018-04-30T09:22:41.804Z,230
2018-04-30T09:23:52.054Z,230
2018-04-30T09:25:02.461Z,230
2018-04-30T09:26:12.774Z,235
2018-04-30T09:27:23.114Z,210
2018-04-30T09:28:33.423Z,215
2018-04-30T09:29:43.732Z,215
2018-04-30T09:30:53.741Z,195
2018-04-30T09:32:04.066Z,205
2018-04-30T09:33:14.346Z,205
2018-04-30T09:34:24.725Z,225
2018-04-30T09:35:34.754Z,230
2018-04-30T09:36:45.083Z,215
2018-04-30T09:37:55.392Z,215
2018-04-30T09:39:05.523Z,240
2018-04-30T09:40:15.623Z,215
2018-04-30T09:41:25.486Z,205
2018-04-30T09:42:35.599Z,200
2018-04-30T09:43:45.767Z,215
2018-04-30T09:44:55.615Z,225
2018-04-30T09:46:04.941Z,230
2018-04-30T09:47:14.798Z,230
2018-04-30T09:48:24.359Z,235
2018-04-30T09:49:34.186Z,230
2018-04-30T09:50:44.308Z,230
2018-04-30T09:51:54.167Z,230
2018-04-30T09:53:04.264Z,230
2018-04-30T09:54:14.107Z,225
2018-04-30T09:55:24.329Z,220
2018-04-30T09:56:34.425Z,230
2018-04-30T09:57:44.920Z,235
2018-04-30T09:58:55.154Z,245
2018-04-30T10:00:05.232Z,235
2018-04-30T10:01:15.119Z,245
2018-04-30T10:02:25.230Z,230
2018-04-30T10:03:35.067Z,230
2018-04-30T10:04:45.158Z,225
2018-04-30T10:05:54.980Z,220
2018-04-30T10:07:05.152Z,210
2018-04-30T10:08:15.270Z,215
2018-04-30T10:09:25.387Z,225
2018-04-30T10:10:35.493Z,220
2018-04-30T10:11:45.589Z,210
2018-04-30T10:12:55.693Z,220
2018-04-30T10:14:05.784Z,210
2018-04-30T10:15:15.937Z,215
2018-04-30T10:16:26.037Z,220
2018-04-30T10:17:35.921Z,230
2018-04-30T10:18:46.045Z,225
2018-04-30T10:19:56.176Z,215
2018-04-30T10:21:06.283Z,220
2018-04-30T10:22:16.413Z,220
2018-04-30T10:23:26.933Z,235
2018-04-30T10:24:37.061Z,235
2018-04-30T10:25:47.247Z,245
2018-04-30T10:26:57.358Z,235
2018-04-30T10:28:07.474Z,240
2018-04-30T10:29:17.803Z,240
2018-04-30T10:30:27.937Z,240
2018-04-30T10:31:38.294Z,245
2018-04-30T10:32:48.419Z,245
2018-04-30T10:33:58.807Z,245
2018-04-30T10:35:10.250Z,245
2018-04-30T10:36:20.946Z,245
2018-04-30T10:37:31.743Z,245
2018-04-30T10:38:42.401Z,250
2018-04-30T10:39:53.120Z,250
2018-04-30T10:41:03.747Z,240
2018-04-30T10:42:14.085Z,240
2018-04-30T10:43:24.746Z,240
2018-04-30T10:44:35.407Z,240
2018-04-30T10:45:45.879Z,230
2018-04-30T10:46:55.741Z,215
2018-04-30T10:48:05.865Z,225
2018-04-30T10:49:15.977Z,215
2018-04-30T10:50:26.098Z,215
2018-04-30T10:51:36.450Z,230
2018-04-30T10:52:46.312Z,210
2018-04-30T10:53:56.200Z,230
2018-04-30T10:55:06.058Z,240
2018-04-30T10:56:15.907Z,240
2018-04-30T10:57:26.001Z,230
2018-04-30T10:58:35.829Z,240
2018-04-30T10:59:45.651Z,240
2018-04-30T11:00:55.766Z,245
2018-04-30T11:02:05.911Z,245
2018-04-30T11:03:15.504Z,245
2018-04-30T11:04:25.666Z,245
2018-04-30T11:05:35.818Z,240
2018-04-30T11:06:45.937Z,245
2018-04-30T11:07:56.036Z,245
2018-04-30T11:09:06.186Z,245
2018-04-30T11:10:16.292Z,245
2018-04-30T11:11:25.853Z,245
2018-04-30T11:12:36.600Z,245
2018-04-30T11:13:46.588Z,245
2018-04-30T11:14:56.584Z,245
2018-04-30T11:16:06.764Z,245
2018-04-30T11:17:16.981Z,250
2018-04-30T11:18:27.068Z,245
2018-04-30T11:19:37.208Z,245
2018-04-30T11:20:47.333Z,240
2018-04-30T11:21:57.435Z,240
2018-04-30T11:23:07.587Z,245
2018-04-30T11:24:17.679Z,240
2018-04-30T11:25:27.790Z,240
2018-04-30T11:26:37.625Z,240
2018-04-30T11:27:47.974Z,240
2018-04-30T11:28:58.129Z,240
2018-04-30T11:30:08.225Z,250
2018-04-30T11:31:18.342Z,255
2018-04-30T11:32:28.209Z,255
2018-04-30T11:33:38.360Z,245
2018-04-30T11:34:48.549Z,245
2018-04-30T11:35:58.722Z,245
2018-04-30T11:37:08.853Z,250
2018-04-30T11:38:18.761Z,205
2018-04-30T11:39:29.012Z,245
2018-04-30T11:40:39.136Z,230
2018-04-30T11:41:49.332Z,225
2018-04-30T11:42:59.210Z,225
2018-04-30T11:44:09.384Z,230
2018-04-30T11:45:19.278Z,230
2018-04-30T11:46:30.774Z,235
2018-04-30T11:47:41.474Z,235
2018-04-30T11:48:52.592Z,250
2018-04-30T11:50:02.894Z,255
2018-04-30T11:51:13.069Z,255
2018-04-30T11:52:23.296Z,255
2018-04-30T11:53:33.172Z,250
2018-04-30T11:54:43.400Z,250
2018-04-30T11:55:53.584Z,250
2018-04-30T11:57:03.733Z,250
2018-04-30T11:58:13.612Z,245
2018-04-30T11:59:23.796Z,250
2018-04-30T12:00:33.716Z,255
2018-04-30T12:01:43.621Z,255
2018-04-30T12:02:57.888Z,255
2018-04-30T12:04:09.888Z,255
2018-04-30T12:05:20.260Z,250
2018-04-30T12:06:30.433Z,250
2018-04-30T12:07:40.604Z,250
2018-04-30T12:08:50.777Z,250
2018-04-30T12:10:00.926Z,245
2018-04-30T12:11:11.780Z,245
2018-04-30T12:12:23.079Z,245
2018-04-30T12:13:34.407Z,245
2018-04-30T12:14:45.086Z,245
2018-04-30T12:15:54.794Z,240
2018-04-30T12:17:04.964Z,245
2018-04-30T12:18:15.136Z,245
2018-04-30T12:19:24.739Z,245
2018-04-30T12:20:34.643Z,240
2018-04-30T12:21:44.898Z,240
2018-04-30T12:22:54.777Z,245
2018-04-30T12:24:04.957Z,240
2018-04-30T12:25:15.146Z,235
2018-04-30T12:26:25.379Z,240
2018-04-30T12:27:35.317Z,240
2018-04-30T12:28:45.479Z,240
2018-04-30T12:29:55.953Z,235
2018-04-30T12:31:06.151Z,240
2018-04-30T12:32:16.397Z,235
2018-04-30T12:33:26.655Z,230
2018-04-30T12:34:36.812Z,225
2018-04-30T12:35:46.686Z,230
2018-04-30T12:36:56.578Z,220
2018-04-30T12:38:06.746Z,220
2018-04-30T12:39:16.975Z,215
2018-04-30T12:40:28.655Z,220
2018-04-30T12:41:39.201Z,215
2018-04-30T12:42:50.263Z,215
2018-04-30T12:44:00.718Z,215
2018-04-30T12:45:10.956Z,215
2018-04-30T12:46:20.866Z,215
2018-04-30T12:47:30.742Z,210
2018-04-30T12:48:40.936Z,210
2018-04-30T12:49:51.488Z,210
2018-04-30T12:51:02.109Z,210
2018-04-30T12:52:12.239Z,215
2018-04-30T12:53:22.455Z,210
2018-04-30T12:54:32.694Z,210
2018-04-30T12:55:42.568Z,210
2018-04-30T12:56:52.539Z,210
2018-04-30T12:58:02.700Z,210
2018-04-30T12:59:12.877Z,210
2018-04-30T13:00:23.026Z,210
2018-04-30T13:01:33.194Z,210
2018-04-30T13:02:43.618Z,215
2018-04-30T13:03:53.512Z,210
2018-04-30T13:05:03.715Z,210
2018-04-30T13:06:13.591Z,210
2018-04-30T13:07:23.769Z,205
2018-04-30T13:08:33.992Z,205
2018-04-30T13:09:44.115Z,205
2018-04-30T13:10:54.252Z,205
2018-04-30T13:12:04.397Z,205
2018-04-30T13:13:14.340Z,210
2018-04-30T13:14:25.384Z,205
2018-04-30T13:15:37.627Z,205
2018-04-30T13:16:47.757Z,205
2018-04-30T13:17:57.867Z,205
2018-04-30T13:19:07.955Z,205
2018-04-30T13:20:17.869Z,205
2018-04-30T13:21:28.073Z,205
2018-04-30T13:22:38.181Z,205
2018-04-30T13:23:48.294Z,200
2018-04-30T13:24:58.393Z,200
2018-04-30T13:26:08.484Z,205
2018-04-30T13:27:18.688Z,200
2018-04-30T13:28:28.871Z,200
2018-04-30T13:29:38.972Z,195
2018-04-30T13:30:49.069Z,195
2018-04-30T13:31:59.175Z,195
2018-04-30T13:33:09.277Z,195
2018-04-30T13:34:19.119Z,195
2018-04-30T13:35:29.233Z,195
2018-04-30T13:36:39.326Z,195
2018-04-30T13:37:49.495Z,195
2018-04-30T13:38:59.601Z,195
2018-04-30T13:40:09.721Z,195
2018-04-30T13:41:19.559Z,190
2018-04-30T13:42:29.644Z,190
2018-04-30T13:43:39.721Z,190
2018-04-30T13:44:49.866Z,190
2018-04-30T13:45:59.977Z,190
2018-04-30T13:47:10.112Z,190
2018-04-30T13:48:20.209Z,185
2018-04-30T13:49:30.123Z,185
2018-04-30T13:50:40.222Z,185
2018-04-30T13:51:50.295Z,185
2018-04-30T13:53:00.387Z,185
2018-04-30T13:54:10.511Z,190
2018-04-30T13:55:20.632Z,195
2018-04-30T13:56:30.454Z,195
2018-04-30T13:57:40.545Z,195
2018-04-30T13:58:50.635Z,190
2018-04-30T14:00:00.742Z,190
2018-04-30T14:01:10.860Z,185
2018-04-30T14:02:21.159Z,190
2018-04-30T14:03:31.295Z,185
2018-04-30T14:04:41.371Z,180
2018-04-30T14:05:51.652Z,180
2018-04-30T14:07:01.814Z,180
2018-04-30T14:08:11.668Z,180
2018-04-30T14:09:21.761Z,180
2018-04-30T14:10:31.622Z,180
2018-04-30T14:11:41.725Z,185
2018-04-30T14:12:51.862Z,190
2018-04-30T14:14:01.960Z,185
2018-04-30T14:15:11.816Z,180
2018-04-30T14:16:21.910Z,180
2018-04-30T14:17:32.044Z,175
2018-04-30T14:18:42.153Z,175
2018-04-30T14:19:52.248Z,175
2018-04-30T14:21:02.344Z,180
2018-04-30T14:22:12.219Z,180
2018-04-30T14:23:22.066Z,180
2018-04-30T14:24:31.935Z,180
2018-04-30T14:25:42.025Z,180
2018-04-30T14:26:51.868Z,185
2018-04-30T14:28:01.969Z,185
2018-04-30T14:29:12.070Z,185
2018-04-30T14:30:22.189Z,180
2018-04-30T14:31:32.036Z,175
2018-04-30T14:32:41.919Z,170
2018-04-30T14:33:52.016Z,165
2018-04-30T14:35:02.120Z,165
2018-04-30T14:36:12.289Z,165
2018-04-30T14:37:22.419Z,165
2018-04-30T14:38:32.772Z,165
2018-04-30T14:39:42.915Z,165
2018-04-30T14:40:53.021Z,165
2018-04-30T14:42:03.131Z,165
2018-04-30T14:43:13.382Z,165
2018-04-30T14:44:23.002Z,165
2018-04-30T14:45:33.180Z,160
2018-04-30T14:46:43.422Z,160
2018-04-30T14:47:53.610Z,160
2018-04-30T14:49:03.937Z,160
2018-04-30T14:50:13.813Z,160
2018-04-30T14:51:24.211Z,160
2018-04-30T14:52:34.374Z,155
2018-04-30T14:53:44.644Z,155
2018-04-30T14:54:54.814Z,155
2018-04-30T14:56:04.433Z,155
2018-04-30T14:57:14.294Z,155
2018-04-30T14:58:24.447Z,155
2018-04-30T14:59:34.624Z,155
2018-04-30T15:00:44.768Z,155
2018-04-30T15:01:54.650Z,155
2018-04-30T15:03:04.779Z,155
2018-04-30T15:04:14.943Z,155
2018-04-30T15:05:25.117Z,155
2018-04-30T15:06:34.751Z,150
2018-04-30T15:07:44.871Z,150
2018-04-30T15:08:54.982Z,150
2018-04-30T15:10:05.149Z,150
2018-04-30T15:11:15.229Z,150
2018-04-30T15:12:25.573Z,150
2018-04-30T15:13:35.965Z,145
2018-04-30T15:14:46.100Z,145
2018-04-30T15:15:56.158Z,145
2018-04-30T15:17:06.540Z,140
2018-04-30T15:18:16.656Z,140
2018-04-30T15:19:26.824Z,140
2018-04-30T15:20:36.953Z,140
2018-04-30T15:21:47.050Z,140
2018-04-30T15:22:57.233Z,140
2018-04-30T15:24:07.345Z,135
2018-04-30T15:25:17.471Z,135
2018-04-30T15:26:27.327Z,135
2018-04-30T15:27:37.425Z,135
2018-04-30T15:28:47.557Z,135
2018-04-30T15:29:57.650Z,135
2018-04-30T15:31:07.745Z,130
2018-04-30T15:32:17.595Z,130
2018-04-30T15:33:27.701Z,130
2018-04-30T15:34:37.857Z,130
2018-04-30T15:35:48.225Z,130
2018-04-30T15:36:58.340Z,130
2018-04-30T15:38:08.192Z,125
2018-04-30T15:39:18.051Z,125
2018-04-30T15:40:28.223Z,125
2018-04-30T15:41:38.062Z,125
2018-04-30T15:42:48.176Z,125
2018-04-30T15:43:58.276Z,125
2018-04-30T15:45:08.127Z,130
2018-04-30T15:46:18.233Z,120
2018-04-30T15:47:28.318Z,120
2018-04-30T15:48:38.550Z,120
2018-04-30T15:49:48.409Z,120
2018-04-30T15:50:58.249Z,120
2018-04-30T15:52:08.382Z,115
2018-04-30T15:53:18.236Z,115
2018-04-30T15:54:28.422Z,115
2018-04-30T15:55:38.263Z,120
2018-04-30T15:56:48.410Z,115
2018-04-30T15:57:58.570Z,115
2018-04-30T15:59:08.685Z,115
2018-04-30T16:00:18.520Z,115
2018-04-30T16:01:29.108Z,115
2018-04-30T16:02:39.261Z,115
2018-04-30T16:03:49.084Z,115
2018-04-30T16:04:59.162Z,110
2018-04-30T16:06:09.003Z,110
2018-04-30T16:07:19.137Z,110
2018-04-30T16:08:29.251Z,105
2018-04-30T16:09:39.428Z,105
2018-04-30T16:10:49.250Z,105
2018-04-30T16:11:59.333Z,105
2018-04-30T16:13:09.165Z,100
2018-04-30T16:14:19.671Z,100
2018-04-30T16:15:30.025Z,100
2018-04-30T16:16:40.183Z,95
2018-04-30T16:17:50.289Z,95
2018-04-30T16:19:00.392Z,95
2018-04-30T16:20:10.545Z,95
2018-04-30T16:21:20.641Z,90
2018-04-30T16:22:30.755Z,90
2018-04-30T16:23:40.874Z,90
2018-04-30T16:24:50.994Z,95
2018-04-30T16:26:00.828Z,90
2018-04-30T16:27:10.958Z,90
2018-04-30T16:28:21.064Z,90
2018-04-30T16:29:31.183Z,85
2018-04-30T16:30:41.289Z,85
2018-04-30T16:31:51.400Z,85
2018-04-30T16:33:01.725Z,80
2018-04-30T16:34:11.822Z,80
2018-04-30T16:35:21.910Z,80
2018-04-30T16:36:32.018Z,80
2018-04-30T16:37:41.857Z,75
2018-04-30T16:38:51.687Z,75
2018-04-30T16:40:01.818Z,75
2018-04-30T16:41:11.907Z,75
2018-04-30T16:42:22.042Z,75
2018-04-30T16:43:32.135Z,70
2018-04-30T16:44:42.296Z,70
2018-04-30T16:45:52.402Z,70
2018-04-30T16:47:02.231Z,70
2018-04-30T16:48:12.323Z,70
2018-04-30T16:49:22.434Z,70
2018-04-30T16:50:32.592Z,65
2018-04-30T16:51:42.430Z,65
2018-04-30T16:52:52.525Z,65